sensor_id;sensor_type;location;lat;lon;timestamp;pressure;altitude;pressure_sealevel;temperature;humidity
80124;BME280;69433;48.642;9.142;2024-03-02T00:03:31;95819.59;;;22.07;35.01
80124;BME280;69433;48.642;9.142;2024-03-02T00:06:20;95826.44;;;22.08;34.90
80124;BME280;69433;48.642;9.142;2024-03-02T00:09:04;95829.53;;;22.07;34.92
80124;BME280;69433;48.642;9.142;2024-03-02T00:12:02;95831.03;;;22.08;34.83
80124;BME280;69433;48.642;9.142;2024-03-02T00:15:04;95835.31;;;22.05;34.89
80124;BME280;69433;48.642;9.142;2024-03-02T00:17:35;95823.94;;;22.01;34.91
80124;BME280;69433;48.642;9.142;2024-03-02T00:20:02;95820.84;;;22.03;34.86
80124;BME280;69433;48.642;9.142;2024-03-02T00:22:37;95827.38;;;22.02;34.87
80124;BME280;69433;48.642;9.142;2024-03-02T00:25:09;95818.91;;;22.03;34.89
80124;BME280;69433;48.642;9.142;2024-03-02T00:27:48;95825.03;;;22.04;34.79
80124;BME280;69433;48.642;9.142;2024-03-02T00:34:10;95829.75;;;22.00;35.01
80124;BME280;69433;48.642;9.142;2024-03-02T00:40:04;95831.31;;;21.97;34.89
80124;BME280;69433;48.642;9.142;2024-03-02T00:42:32;95830.56;;;21.97;34.83
80124;BME280;69433;48.642;9.142;2024-03-02T00:45:19;95842.38;;;21.99;34.85
80124;BME280;69433;48.642;9.142;2024-03-02T00:47:45;95832.09;;;21.98;34.76
80124;BME280;69433;48.642;9.142;2024-03-02T00:50:19;95835.53;;;21.98;34.79
80124;BME280;69433;48.642;9.142;2024-03-02T00:52:48;95827.88;;;21.97;34.69
80124;BME280;69433;48.642;9.142;2024-03-02T00:55:35;95825.56;;;21.99;34.77
80124;BME280;69433;48.642;9.142;2024-03-02T00:58:10;95829.31;;;22.01;34.76
80124;BME280;69433;48.642;9.142;2024-03-02T01:00:50;95824.81;;;21.98;34.82
80124;BME280;69433;48.642;9.142;2024-03-02T01:03:34;95823.66;;;21.99;34.58
80124;BME280;69433;48.642;9.142;2024-03-02T01:06:00;95830.50;;;22.00;34.68
80124;BME280;69433;48.642;9.142;2024-03-02T01:08:59;95831.25;;;22.01;34.60
80124;BME280;69433;48.642;9.142;2024-03-02T01:11:30;95826.63;;;22.01;34.63
80124;BME280;69433;48.642;9.142;2024-03-02T01:14:04;95830.50;;;22.00;34.66
80124;BME280;69433;48.642;9.142;2024-03-02T01:19:43;95825.56;;;21.99;34.64
80124;BME280;69433;48.642;9.142;2024-03-02T01:22:19;95820.97;;;21.99;34.69
80124;BME280;69433;48.642;9.142;2024-03-02T01:25:09;95818.72;;;21.98;34.48
80124;BME280;69433;48.642;9.142;2024-03-02T01:31:05;95818.78;;;21.94;34.64
80124;BME280;69433;48.642;9.142;2024-03-02T01:37:25;95810.75;;;21.94;34.70
80124;BME280;69433;48.642;9.142;2024-03-02T01:40:25;95818.44;;;21.92;34.57
80124;BME280;69433;48.642;9.142;2024-03-02T01:43:01;95821.56;;;21.91;34.79
80124;BME280;69433;48.642;9.142;2024-03-02T01:45:45;95832.16;;;21.94;34.64
80124;BME280;69433;48.642;9.142;2024-03-02T01:48:18;95827.69;;;21.91;34.70
80124;BME280;69433;48.642;9.142;2024-03-02T01:51:12;95824.25;;;21.91;34.81
80124;BME280;69433;48.642;9.142;2024-03-02T01:53:51;95813.63;;;21.87;34.73
80124;BME280;69433;48.642;9.142;2024-03-02T01:56:16;95817.50;;;21.86;34.69
80124;BME280;69433;48.642;9.142;2024-03-02T01:58:54;95809.78;;;21.88;34.63
80124;BME280;69433;48.642;9.142;2024-03-02T02:01:47;95814.81;;;21.86;34.75
80124;BME280;69433;48.642;9.142;2024-03-02T02:07:42;95808.72;;;21.85;34.82
80124;BME280;69433;48.642;9.142;2024-03-02T02:10:18;95809.56;;;21.82;34.70
80124;BME280;69433;48.642;9.142;2024-03-02T02:13:06;95807.97;;;21.85;34.49
80124;BME280;69433;48.642;9.142;2024-03-02T02:15:45;95801.09;;;21.84;34.56
80124;BME280;69433;48.642;9.142;2024-03-02T02:18:21;95802.28;;;21.83;34.70
80124;BME280;69433;48.642;9.142;2024-03-02T02:20:57;95804.19;;;21.82;34.50
80124;BME280;69433;48.642;9.142;2024-03-02T02:23:32;95806.56;;;21.80;34.64
80124;BME280;69433;48.642;9.142;2024-03-02T02:26:17;95809.56;;;21.82;34.64
80124;BME280;69433;48.642;9.142;2024-03-02T02:28:49;95803.44;;;21.82;34.60
80124;BME280;69433;48.642;9.142;2024-03-02T02:31:26;95802.28;;;21.83;34.62
80124;BME280;69433;48.642;9.142;2024-03-02T02:37:11;95795.88;;;21.80;34.49
80124;BME280;69433;48.642;9.142;2024-03-02T02:39:55;95794.47;;;21.76;34.66
80124;BME280;69433;48.642;9.142;2024-03-02T02:42:38;95795.22;;;21.76;34.56
80124;BME280;69433;48.642;9.142;2024-03-02T02:45:05;95783.44;;;21.74;34.63
80124;BME280;69433;48.642;9.142;2024-03-02T02:47:55;95787.59;;;21.75;34.54
80124;BME280;69433;48.642;9.142;2024-03-02T02:50:34;95775.41;;;21.74;34.54
80124;BME280;69433;48.642;9.142;2024-03-02T02:53:02;95770.38;;;21.76;34.49
80124;BME280;69433;48.642;9.142;2024-03-02T02:55:41;95776.06;;;21.78;34.45
80124;BME280;69433;48.642;9.142;2024-03-02T02:58:12;95774.97;;;21.75;34.60
80124;BME280;69433;48.642;9.142;2024-03-02T03:03:55;95776.47;;;21.76;34.60
80124;BME280;69433;48.642;9.142;2024-03-02T03:06:21;95771.56;;;21.75;34.56
80124;BME280;69433;48.642;9.142;2024-03-02T03:08:51;95775.41;;;21.74;34.52
80124;BME280;69433;48.642;9.142;2024-03-02T03:11:16;95780.00;;;21.73;34.46
80124;BME280;69433;48.642;9.142;2024-03-02T03:13:54;95781.19;;;21.72;34.50
80124;BME280;69433;48.642;9.142;2024-03-02T03:16:25;95785.34;;;21.73;34.47
80124;BME280;69433;48.642;9.142;2024-03-02T03:19:10;95784.59;;;21.73;34.45
80124;BME280;69433;48.642;9.142;2024-03-02T03:22:01;95783.13;;;21.72;34.52
80124;BME280;69433;48.642;9.142;2024-03-02T03:24:37;95788.91;;;21.70;34.59
80124;BME280;69433;48.642;9.142;2024-03-02T03:27:10;95784.59;;;21.73;34.49
80124;BME280;69433;48.642;9.142;2024-03-02T03:29:57;95783.13;;;21.72;34.37
80124;BME280;69433;48.642;9.142;2024-03-02T03:36:00;95782.81;;;21.70;34.58
80124;BME280;69433;48.642;9.142;2024-03-02T03:38:39;95785.47;;;21.70;34.56
80124;BME280;69433;48.642;9.142;2024-03-02T03:41:18;95786.97;;;21.71;34.37
80124;BME280;69433;48.642;9.142;2024-03-02T03:43:52;95782.06;;;21.69;34.37
80124;BME280;69433;48.642;9.142;2024-03-02T03:46:19;95778.72;;;21.65;34.44
80124;BME280;69433;48.642;9.142;2024-03-02T03:48:49;95778.72;;;21.65;34.54
80124;BME280;69433;48.642;9.142;2024-03-02T03:54:37;95782.56;;;21.64;34.21
80124;BME280;69433;48.642;9.142;2024-03-02T03:57:11;95791.00;;;21.63;34.50
80124;BME280;69433;48.642;9.142;2024-03-02T03:59:56;95787.16;;;21.64;34.49
80124;BME280;69433;48.642;9.142;2024-03-02T04:08:53;95788.03;;;21.61;34.38
80124;BME280;69433;48.642;9.142;2024-03-02T04:11:21;95794.53;;;21.60;34.25
80124;BME280;69433;48.642;9.142;2024-03-02T04:14:05;95785.03;;;21.59;34.30
80124;BME280;69433;48.642;9.142;2024-03-02T04:17:02;95781.19;;;21.60;34.45
80124;BME280;69433;48.642;9.142;2024-03-02T04:19:45;95780.84;;;21.58;34.48
80124;BME280;69433;48.642;9.142;2024-03-02T04:22:28;95779.00;;;21.55;34.34
80124;BME280;69433;48.642;9.142;2024-03-02T04:25:24;95778.16;;;21.58;34.24
80124;BME280;69433;48.642;9.142;2024-03-02T04:27:57;95772.16;;;21.54;34.43
80124;BME280;69433;48.642;9.142;2024-03-02T04:30:43;95781.25;;;21.56;34.29
80124;BME280;69433;48.642;9.142;2024-03-02T04:33:09;95790.88;;;21.54;34.40
80124;BME280;69433;48.642;9.142;2024-03-02T04:35:37;95795.06;;;21.55;34.27
80124;BME280;69433;48.642;9.142;2024-03-02T04:38:06;95783.59;;;21.54;34.45
80124;BME280;69433;48.642;9.142;2024-03-02T04:40:34;95782.75;;;21.57;34.37
80124;BME280;69433;48.642;9.142;2024-03-02T04:43:01;95785.03;;;21.59;34.42
80124;BME280;69433;48.642;9.142;2024-03-02T04:49:18;95787.03;;;21.55;34.60
80124;BME280;69433;48.642;9.142;2024-03-02T04:51:46;95779.00;;;21.55;34.38
80124;BME280;69433;48.642;9.142;2024-03-02T04:54:16;95784.34;;;21.55;34.46
80124;BME280;69433;48.642;9.142;2024-03-02T04:57:04;95784.78;;;21.53;34.60
80124;BME280;69433;48.642;9.142;2024-03-02T04:59:38;95781.38;;;21.53;34.58
80124;BME280;69433;48.642;9.142;2024-03-02T05:05:06;95795.16;;;21.51;34.47
80124;BME280;69433;48.642;9.142;2024-03-02T05:07:37;95797.44;;;21.53;34.43
80124;BME280;69433;48.642;9.142;2024-03-02T05:10:11;95793.56;;;21.54;34.43
80124;BME280;69433;48.642;9.142;2024-03-02T05:12:39;95790.88;;;21.54;34.48
80124;BME280;69433;48.642;9.142;2024-03-02T05:15:07;95796.97;;;21.54;34.41
80124;BME280;69433;48.642;9.142;2024-03-02T05:17:33;95799.97;;;21.56;34.38
80124;BME280;69433;48.642;9.142;2024-03-02T05:20:21;95798.06;;;21.57;34.36
80124;BME280;69433;48.642;9.142;2024-03-02T05:23:00;95795.06;;;21.55;34.38
80124;BME280;69433;48.642;9.142;2024-03-02T05:25:25;95791.63;;;21.54;34.33
80124;BME280;69433;48.642;9.142;2024-03-02T05:27:56;95798.91;;;21.54;34.14
80124;BME280;69433;48.642;9.142;2024-03-02T05:30:21;95796.56;;;21.56;34.34
80124;BME280;69433;48.642;9.142;2024-03-02T05:43:27;95798.59;;;21.52;34.18
80124;BME280;69433;48.642;9.142;2024-03-02T05:46:00;95800.81;;;21.53;34.19
80124;BME280;69433;48.642;9.142;2024-03-02T05:51:17;95806.16;;;21.53;34.10
80124;BME280;69433;48.642;9.142;2024-03-02T05:53:56;95808.84;;;21.53;34.28
80124;BME280;69433;48.642;9.142;2024-03-02T05:56:35;95810.78;;;21.53;34.12
80124;BME280;69433;48.642;9.142;2024-03-02T05:59:25;95811.97;;;21.52;33.97
80124;BME280;69433;48.642;9.142;2024-03-02T06:01:54;95813.13;;;21.51;34.11
80124;BME280;69433;48.642;9.142;2024-03-02T06:07:28;95815.47;;;21.48;34.16
80124;BME280;69433;48.642;9.142;2024-03-02T06:10:13;95811.31;;;21.47;33.97
80124;BME280;69433;48.642;9.142;2024-03-02T06:13:08;95812.81;;;21.48;33.94
80124;BME280;69433;48.642;9.142;2024-03-02T06:19:16;95808.28;;;21.45;34.06
80124;BME280;69433;48.642;9.142;2024-03-02T06:21:46;95796.09;;;21.44;34.09
80124;BME280;69433;48.642;9.142;2024-03-02T06:34:54;95838.47;;;21.46;33.79
80124;BME280;69433;48.642;9.142;2024-03-02T06:37:36;95831.94;;;21.47;33.87
80124;BME280;69433;48.642;9.142;2024-03-02T06:45:47;95839.97;;;21.47;33.73
80124;BME280;69433;48.642;9.142;2024-03-02T06:48:45;95838.03;;;21.47;33.95
80124;BME280;69433;48.642;9.142;2024-03-02T06:51:19;95834.94;;;21.49;33.75
80124;BME280;69433;48.642;9.142;2024-03-02T06:57:04;95841.06;;;21.50;33.85
80124;BME280;69433;48.642;9.142;2024-03-02T06:59:38;95842.13;;;21.52;33.84
80124;BME280;69433;48.642;9.142;2024-03-02T07:02:07;95839.00;;;21.54;33.64
80124;BME280;69433;48.642;9.142;2024-03-02T07:04:37;95842.44;;;21.54;33.83
80124;BME280;69433;48.642;9.142;2024-03-02T07:07:06;95839.34;;;21.56;33.68
80124;BME280;69433;48.642;9.142;2024-03-02T07:10:01;95837.00;;;21.58;33.50
80124;BME280;69433;48.642;9.142;2024-03-02T07:12:31;95839.16;;;21.63;33.66
80124;BME280;69433;48.642;9.142;2024-03-02T07:15:18;95846.75;;;21.64;33.68
80124;BME280;69433;48.642;9.142;2024-03-02T07:18:29;95844.75;;;21.68;33.42
80124;BME280;69433;48.642;9.142;2024-03-02T07:20:59;95841.09;;;21.75;33.51
80124;BME280;69433;48.642;9.142;2024-03-02T07:23:34;95844.88;;;21.77;33.31
80124;BME280;69433;48.642;9.142;2024-03-02T07:26:15;95846.25;;;21.82;33.35
80124;BME280;69433;48.642;9.142;2024-03-02T07:28:43;95845.09;;;21.83;33.31
80124;BME280;69433;48.642;9.142;2024-03-02T07:31:21;95846.78;;;21.77;33.36
80124;BME280;69433;48.642;9.142;2024-03-02T07:37:16;95833.41;;;21.77;33.27
80124;BME280;69433;48.642;9.142;2024-03-02T07:39:50;95840.28;;;21.78;33.43
80124;BME280;69433;48.642;9.142;2024-03-02T07:42:32;95837.25;;;21.76;33.50
80124;BME280;69433;48.642;9.142;2024-03-02T07:45:17;95842.28;;;21.74;33.51
80124;BME280;69433;48.642;9.142;2024-03-02T07:47:58;95843.56;;;21.69;33.66
80124;BME280;69433;48.642;9.142;2024-03-02T07:50:38;95839.81;;;21.67;33.60
80124;BME280;69433;48.642;9.142;2024-03-02T07:53:07;95839.25;;;21.59;33.79
80124;BME280;69433;48.642;9.142;2024-03-02T07:55:46;95840.22;;;21.53;34.11
80124;BME280;69433;48.642;9.142;2024-03-02T07:58:21;95838.38;;;21.50;34.01
80124;BME280;69433;48.642;9.142;2024-03-02T08:00:56;95835.03;;;21.45;34.15
80124;BME280;69433;48.642;9.142;2024-03-02T08:03:22;95838.13;;;21.44;34.21
80124;BME280;69433;48.642;9.142;2024-03-02T08:05:49;95832.34;;;21.45;34.01
80124;BME280;69433;48.642;9.142;2024-03-02T08:08:33;95833.09;;;21.46;34.25
80124;BME280;69433;48.642;9.142;2024-03-02T08:11:00;95814.06;;;21.44;34.11
80124;BME280;69433;48.642;9.142;2024-03-02T08:13:28;95810.88;;;21.49;33.94
80124;BME280;69433;48.642;9.142;2024-03-02T08:16:05;95811.97;;;21.52;34.10
80124;BME280;69433;48.642;9.142;2024-03-02T08:18:47;95821.78;;;21.55;33.85
80124;BME280;69433;48.642;9.142;2024-03-02T08:21:20;95817.94;;;21.56;33.96
80124;BME280;69433;48.642;9.142;2024-03-02T08:24:04;95822.13;;;21.57;33.69
80124;BME280;69433;48.642;9.142;2024-03-02T08:26:46;95814.03;;;21.60;33.58
80124;BME280;69433;48.642;9.142;2024-03-02T08:29:19;95811.56;;;21.66;33.44
80124;BME280;69433;48.642;9.142;2024-03-02T08:31:57;95825.25;;;21.68;33.39
80124;BME280;69433;48.642;9.142;2024-03-02T08:34:23;95832.75;;;21.73;33.50
80124;BME280;69433;48.642;9.142;2024-03-02T08:37:01;95833.09;;;21.75;33.22
80124;BME280;69433;48.642;9.142;2024-03-02T08:39:33;95835.88;;;21.84;33.40
80124;BME280;69433;48.642;9.142;2024-03-02T08:42:02;95836.66;;;21.97;33.29
80124;BME280;69433;48.642;9.142;2024-03-02T08:44:33;95835.97;;;22.09;33.20
80124;BME280;69433;48.642;9.142;2024-03-02T08:46:59;95832.22;;;22.19;33.21
80124;BME280;69433;48.642;9.142;2024-03-02T08:49:43;95830.41;;;22.29;33.04
80124;BME280;69433;48.642;9.142;2024-03-02T08:52:30;95827.50;;;22.36;33.00
80124;BME280;69433;48.642;9.142;2024-03-02T08:54:55;95834.56;;;22.43;33.08
80124;BME280;69433;48.642;9.142;2024-03-02T08:57:31;95826.97;;;22.54;32.76
80124;BME280;69433;48.642;9.142;2024-03-02T09:00:05;95827.06;;;22.63;32.75
80124;BME280;69433;48.642;9.142;2024-03-02T09:02:33;95822.91;;;22.75;32.93
80124;BME280;69433;48.642;9.142;2024-03-02T09:04:58;95824.06;;;22.86;32.86
80124;BME280;69433;48.642;9.142;2024-03-02T09:07:25;95825.19;;;22.98;32.55
80124;BME280;69433;48.642;9.142;2024-03-02T09:10:02;95834.69;;;23.12;32.46
80124;BME280;69433;48.642;9.142;2024-03-02T09:12:31;95827.81;;;23.23;32.20
80124;BME280;69433;48.642;9.142;2024-03-02T09:15:03;95836.53;;;23.37;32.23
80124;BME280;69433;48.642;9.142;2024-03-02T09:17:42;95836.50;;;23.49;32.32
80124;BME280;69433;48.642;9.142;2024-03-02T09:20:10;95831.63;;;23.57;32.33
80124;BME280;69433;48.642;9.142;2024-03-02T09:22:52;95824.41;;;23.66;31.96
80124;BME280;69433;48.642;9.142;2024-03-02T09:25:19;95811.94;;;23.73;31.99
80124;BME280;69433;48.642;9.142;2024-03-02T09:28:01;95813.00;;;23.84;31.71
80124;BME280;69433;48.642;9.142;2024-03-02T09:30:26;95809.34;;;23.91;31.98
80124;BME280;69433;48.642;9.142;2024-03-02T09:33:07;95810.56;;;23.99;31.80
80124;BME280;69433;48.642;9.142;2024-03-02T09:35:36;95804.94;;;24.06;31.50
80124;BME280;69433;48.642;9.142;2024-03-02T09:38:22;95810.03;;;24.13;31.70
80124;BME280;69433;48.642;9.142;2024-03-02T09:40:58;95797.53;;;24.19;31.68
80124;BME280;69433;48.642;9.142;2024-03-02T09:43:27;95800.84;;;24.23;31.27
80124;BME280;69433;48.642;9.142;2024-03-02T09:46:26;95791.03;;;24.29;31.65
80124;BME280;69433;48.642;9.142;2024-03-02T09:48:51;95791.19;;;24.35;31.20
80124;BME280;69433;48.642;9.142;2024-03-02T09:51:29;95786.75;;;24.41;31.10
80124;BME280;69433;48.642;9.142;2024-03-02T09:53:57;95784.66;;;24.45;31.42
80124;BME280;69433;48.642;9.142;2024-03-02T10:02:51;95791.84;;;24.57;31.00
80124;BME280;69433;48.642;9.142;2024-03-02T10:05:31;95792.31;;;24.65;30.99
80124;BME280;69433;48.642;9.142;2024-03-02T10:08:17;95787.25;;;24.67;31.34
80124;BME280;69433;48.642;9.142;2024-03-02T10:10:49;95782.94;;;24.69;30.96
80124;BME280;69433;48.642;9.142;2024-03-02T10:13:26;95780.09;;;24.73;31.36
80124;BME280;69433;48.642;9.142;2024-03-02T10:16:11;95785.00;;;24.74;31.19
80124;BME280;69433;48.642;9.142;2024-03-02T10:21:51;95778.16;;;24.73;31.53
80124;BME280;69433;48.642;9.142;2024-03-02T10:31:19;95770.69;;;24.87;31.05
80124;BME280;69433;48.642;9.142;2024-03-02T10:37:11;95766.66;;;24.91;31.42
80124;BME280;69433;48.642;9.142;2024-03-02T10:39:39;95772.38;;;24.93;31.63
80124;BME280;69433;48.642;9.142;2024-03-02T10:48:40;95756.69;;;25.10;31.30
80124;BME280;69433;48.642;9.142;2024-03-02T10:54:28;95752.34;;;25.22;31.11
80124;BME280;69433;48.642;9.142;2024-03-02T11:00:24;95735.75;;;25.32;31.17
80124;BME280;69433;48.642;9.142;2024-03-02T11:03:25;95729.63;;;25.32;31.20
80124;BME280;69433;48.642;9.142;2024-03-02T11:09:22;95730.38;;;25.32;31.44
80124;BME280;69433;48.642;9.142;2024-03-02T11:15:10;95724.22;;;25.32;31.51
80124;BME280;69433;48.642;9.142;2024-03-02T11:21:04;95716.16;;;25.32;31.66
80124;BME280;69433;48.642;9.142;2024-03-02T11:27:03;95705.84;;;26.71;29.19
80124;BME280;69433;48.642;9.142;2024-03-02T11:29:47;95704.75;;;27.60;28.19
80124;BME280;69433;48.642;9.142;2024-03-02T11:36:11;95700.94;;;28.98;25.52
80124;BME280;69433;48.642;9.142;2024-03-02T11:38:48;95701.00;;;29.29;25.53
80124;BME280;69433;48.642;9.142;2024-03-02T11:44:47;95677.94;;;29.08;25.62
80124;BME280;69433;48.642;9.142;2024-03-02T11:50:39;95671.06;;;28.66;26.21
80124;BME280;69433;48.642;9.142;2024-03-02T11:53:07;95666.63;;;28.63;25.87
80124;BME280;69433;48.642;9.142;2024-03-02T11:59:00;95662.38;;;29.29;24.99
80124;BME280;69433;48.642;9.142;2024-03-02T12:01:28;95663.00;;;29.44;25.08
80124;BME280;69433;48.642;9.142;2024-03-02T12:07:54;95644.09;;;29.86;24.36
80124;BME280;69433;48.642;9.142;2024-03-02T12:13:51;95640.59;;;30.17;24.46
80124;BME280;69433;48.642;9.142;2024-03-02T12:16:26;95634.03;;;30.41;24.09
80124;BME280;69433;48.642;9.142;2024-03-02T12:28:46;95631.53;;;31.35;22.84
80124;BME280;69433;48.642;9.142;2024-03-02T12:34:34;95622.91;;;31.43;22.71
80124;BME280;69433;48.642;9.142;2024-03-02T12:40:04;95612.00;;;31.04;22.70
80124;BME280;69433;48.642;9.142;2024-03-02T12:45:52;95603.06;;;30.70;23.36
80124;BME280;69433;48.642;9.142;2024-03-02T12:48:43;95592.66;;;30.57;23.31
80124;BME280;69433;48.642;9.142;2024-03-02T12:51:35;95599.09;;;30.54;23.08
80124;BME280;69433;48.642;9.142;2024-03-02T12:54:15;95593.06;;;30.28;23.33
80124;BME280;69433;48.642;9.142;2024-03-02T13:00:04;95597.50;;;28.36;25.20
80124;BME280;69433;48.642;9.142;2024-03-02T13:02:48;95598.00;;;27.80;26.13
80124;BME280;69433;48.642;9.142;2024-03-02T13:05:47;95597.91;;;27.39;26.55
80124;BME280;69433;48.642;9.142;2024-03-02T13:20:57;95582.59;;;28.47;25.96
80124;BME280;69433;48.642;9.142;2024-03-02T13:27:01;95578.91;;;28.70;26.24
80124;BME280;69433;48.642;9.142;2024-03-02T13:29:42;95575.88;;;28.83;26.07
80124;BME280;69433;48.642;9.142;2024-03-02T13:32:12;95569.22;;;28.84;25.86
80124;BME280;69433;48.642;9.142;2024-03-02T13:34:48;95579.09;;;28.87;26.40
80124;BME280;69433;48.642;9.142;2024-03-02T13:40:35;95570.28;;;29.23;25.45
80124;BME280;69433;48.642;9.142;2024-03-02T13:46:36;95562.16;;;29.23;25.05
80124;BME280;69433;48.642;9.142;2024-03-02T13:52:23;95561.84;;;28.58;25.74
80124;BME280;69433;48.642;9.142;2024-03-02T13:58:02;95556.56;;;28.03;26.50
80124;BME280;69433;48.642;9.142;2024-03-02T14:00:47;95554.75;;;27.94;26.92
80124;BME280;69433;48.642;9.142;2024-03-02T14:06:34;95551.75;;;27.37;27.66
80124;BME280;69433;48.642;9.142;2024-03-02T14:09:13;95547.78;;;27.03;28.12
80124;BME280;69433;48.642;9.142;2024-03-02T14:15:13;95539.97;;;26.08;30.11
80124;BME280;69433;48.642;9.142;2024-03-02T14:21:01;95535.97;;;25.79;30.18
80124;BME280;69433;48.642;9.142;2024-03-02T14:26:45;95533.72;;;25.54;30.47
80124;BME280;69433;48.642;9.142;2024-03-02T14:29:25;95529.31;;;25.42;30.35
80124;BME280;69433;48.642;9.142;2024-03-02T14:31:59;95522.94;;;25.30;30.22
80124;BME280;69433;48.642;9.142;2024-03-02T14:34:47;95522.56;;;25.13;30.15
80124;BME280;69433;48.642;9.142;2024-03-02T14:37:39;95524.81;;;25.15;29.65
80124;BME280;69433;48.642;9.142;2024-03-02T14:40:12;95518.03;;;25.20;29.82
80124;BME280;69433;48.642;9.142;2024-03-02T14:42:50;95525.09;;;25.17;29.62
80124;BME280;69433;48.642;9.142;2024-03-02T14:51:49;95509.75;;;25.08;30.00
80124;BME280;69433;48.642;9.142;2024-03-02T14:54:30;95504.38;;;25.08;30.10
80124;BME280;69433;48.642;9.142;2024-03-02T14:57:03;95497.94;;;25.06;29.81
80124;BME280;69433;48.642;9.142;2024-03-02T14:59:35;95500.34;;;25.04;30.22
80124;BME280;69433;48.642;9.142;2024-03-02T15:02:13;95498.56;;;25.01;30.57
80124;BME280;69433;48.642;9.142;2024-03-02T15:08:13;95488.25;;;24.90;31.15
80124;BME280;69433;48.642;9.142;2024-03-02T15:11:02;95489.78;;;24.82;31.83
80124;BME280;69433;48.642;9.142;2024-03-02T15:13:45;95491.31;;;24.74;32.14
80124;BME280;69433;48.642;9.142;2024-03-02T15:16:37;95479.84;;;24.64;32.08
80124;BME280;69433;48.642;9.142;2024-03-02T15:19:24;95488.22;;;24.57;32.69
80124;BME280;69433;48.642;9.142;2024-03-02T15:22:11;95485.88;;;24.50;33.44
80124;BME280;69433;48.642;9.142;2024-03-02T15:24:44;95480.78;;;24.43;33.40
80124;BME280;69433;48.642;9.142;2024-03-02T15:27:16;95484.25;;;24.34;33.99
80124;BME280;69433;48.642;9.142;2024-03-02T15:29:58;95477.69;;;24.26;36.29
80124;BME280;69433;48.642;9.142;2024-03-02T15:32:39;95477.22;;;24.19;35.06
80124;BME280;69433;48.642;9.142;2024-03-02T15:35:06;95470.25;;;24.12;34.40
80124;BME280;69433;48.642;9.142;2024-03-02T15:38:00;95472.47;;;24.04;34.38
80124;BME280;69433;48.642;9.142;2024-03-02T15:40:26;95481.88;;;24.00;35.06
80124;BME280;69433;48.642;9.142;2024-03-02T15:46:24;95470.84;;;23.89;34.82
80124;BME280;69433;48.642;9.142;2024-03-02T15:49:12;95469.47;;;23.84;35.19
80124;BME280;69433;48.642;9.142;2024-03-02T15:54:59;95467.28;;;23.74;35.26
80124;BME280;69433;48.642;9.142;2024-03-02T16:04:33;95469.16;;;23.55;35.96
80124;BME280;69433;48.642;9.142;2024-03-02T16:11:08;95478.81;;;23.43;36.33
80124;BME280;69433;48.642;9.142;2024-03-02T16:16:56;95479.38;;;23.29;36.18
80124;BME280;69433;48.642;9.142;2024-03-02T16:19:41;95474.94;;;23.26;36.68
80124;BME280;69433;48.642;9.142;2024-03-02T16:22:07;95482.34;;;23.22;35.93
80124;BME280;69433;48.642;9.142;2024-03-02T16:24:58;95478.31;;;23.17;35.46
80124;BME280;69433;48.642;9.142;2024-03-02T16:27:31;95474.59;;;23.15;36.09
80124;BME280;69433;48.642;9.142;2024-03-02T16:30:12;95483.66;;;23.17;35.58
80124;BME280;69433;48.642;9.142;2024-03-02T16:32:55;95485.34;;;23.24;35.16
80124;BME280;69433;48.642;9.142;2024-03-02T16:35:26;95484.75;;;23.29;35.42
80124;BME280;69433;48.642;9.142;2024-03-02T16:38:29;95477.31;;;23.33;35.12
80124;BME280;69433;48.642;9.142;2024-03-02T16:40:56;95488.19;;;23.39;35.77
80124;BME280;69433;48.642;9.142;2024-03-02T16:43:30;95488.81;;;23.43;35.69
80124;BME280;69433;48.642;9.142;2024-03-02T16:46:03;95487.47;;;23.47;35.73
80124;BME280;69433;48.642;9.142;2024-03-02T16:49:06;95492.28;;;23.52;35.59
80124;BME280;69433;48.642;9.142;2024-03-02T16:55:11;95481.25;;;23.59;35.97
80124;BME280;69433;48.642;9.142;2024-03-02T16:57:47;95479.31;;;23.60;36.39
80124;BME280;69433;48.642;9.142;2024-03-02T17:00:46;95482.44;;;23.58;36.38
80124;BME280;69433;48.642;9.142;2024-03-02T17:03:42;95490.63;;;23.55;36.10
80124;BME280;69433;48.642;9.142;2024-03-02T17:06:15;95497.34;;;23.50;36.28
80124;BME280;69433;48.642;9.142;2024-03-02T17:09:17;95484.94;;;23.44;35.20
80124;BME280;69433;48.642;9.142;2024-03-02T17:12:01;95485.19;;;23.37;34.44
80124;BME280;69433;48.642;9.142;2024-03-02T17:14:35;95484.63;;;23.33;34.11
80124;BME280;69433;48.642;9.142;2024-03-02T17:17:20;95495.16;;;23.27;34.41
80124;BME280;69433;48.642;9.142;2024-03-02T17:22:56;95494.22;;;23.12;34.97
80124;BME280;69433;48.642;9.142;2024-03-02T17:25:44;95492.59;;;23.05;35.02
80124;BME280;69433;48.642;9.142;2024-03-02T17:28:32;95485.84;;;23.01;35.52
80124;BME280;69433;48.642;9.142;2024-03-02T17:31:16;95486.72;;;22.98;34.07
80124;BME280;69433;48.642;9.142;2024-03-02T17:36:55;95490.63;;;22.97;35.70
80124;BME280;69433;48.642;9.142;2024-03-02T17:42:44;95490.75;;;22.93;34.34
80124;BME280;69433;48.642;9.142;2024-03-02T17:45:18;95491.06;;;22.95;34.82
80124;BME280;69433;48.642;9.142;2024-03-02T17:48:17;95487.94;;;22.97;34.96
80124;BME280;69433;48.642;9.142;2024-03-02T17:50:50;95491.81;;;22.96;35.49
80124;BME280;69433;48.642;9.142;2024-03-02T17:53:48;95482.56;;;22.97;34.74
80124;BME280;69433;48.642;9.142;2024-03-02T17:56:20;95481.38;;;22.98;36.38
80124;BME280;69433;48.642;9.142;2024-03-02T17:59:03;95481.84;;;22.96;35.79
80124;BME280;69433;48.642;9.142;2024-03-02T18:04:59;95479.63;;;23.04;35.41
80124;BME280;69433;48.642;9.142;2024-03-02T18:07:34;95477.53;;;23.08;35.92
80124;BME280;69433;48.642;9.142;2024-03-02T18:10:23;95493.78;;;23.13;35.70
80124;BME280;69433;48.642;9.142;2024-03-02T18:13:02;95481.72;;;23.18;35.39
80124;BME280;69433;48.642;9.142;2024-03-02T18:15:44;95485.47;;;23.20;35.51
80124;BME280;69433;48.642;9.142;2024-03-02T18:18:30;95473.44;;;23.25;35.93
80124;BME280;69433;48.642;9.142;2024-03-02T18:21:05;95479.09;;;23.36;35.45
80124;BME280;69433;48.642;9.142;2024-03-02T18:26:52;95468.28;;;23.58;35.12